createdAt,value
2023-01-20T00:00:01.682Z,12.75
2023-01-20T00:02:28.470Z,12.72
2023-01-20T00:04:55.271Z,12.73
2023-01-20T00:07:22.313Z,12.73
2023-01-20T00:09:49.268Z,12.75
2023-01-20T00:12:16.511Z,12.85
2023-01-20T00:14:43.230Z,12.94
2023-01-20T00:17:09.909Z,12.94
2023-01-20T00:19:36.701Z,12.93
2023-01-20T00:22:03.485Z,13.01
2023-01-20T00:24:30.177Z,12.98
2023-01-20T00:26:56.935Z,12.98
2023-01-20T00:29:23.996Z,12.97
2023-01-20T00:31:50.752Z,12.93
2023-01-20T00:34:17.430Z,12.95
2023-01-20T00:36:44.417Z,12.95
2023-01-20T00:39:11.228Z,12.96
2023-01-20T00:41:38.130Z,13.03
2023-01-20T00:44:05.125Z,13.01
2023-01-20T00:46:31.871Z,12.89
2023-01-20T00:48:58.707Z,12.93
2023-01-20T00:51:25.535Z,12.93
2023-01-20T00:53:52.315Z,12.95
2023-01-20T00:56:19.082Z,12.98
2023-01-20T00:58:45.890Z,13.02
2023-01-20T01:01:13.173Z,13.02
2023-01-20T01:03:40.216Z,13.01
2023-01-20T01:06:17.723Z,13.04
2023-01-20T01:08:45.228Z,13.01
2023-01-20T01:11:13.310Z,13.04
2023-01-20T01:13:40.338Z,13.00
2023-01-20T01:16:15.163Z,13.09
2023-01-20T01:18:42.437Z,13.09
2023-01-20T01:21:11.425Z,13.03
2023-01-20T01:23:38.138Z,13.01
2023-01-20T01:26:05.007Z,12.99
2023-01-20T01:28:32.017Z,12.92
2023-01-20T01:31:04.101Z,13.00
2023-01-20T01:33:31.354Z,13.08
2023-01-20T01:36:02.992Z,13.12
2023-01-20T01:38:29.918Z,12.97
2023-01-20T01:40:56.955Z,12.98
2023-01-20T01:43:25.760Z,13.06
2023-01-20T01:45:53.065Z,12.94
2023-01-20T01:48:28.420Z,12.93
2023-01-20T01:51:07.628Z,13.00
2023-01-20T01:53:41.835Z,12.88
2023-01-20T01:56:10.248Z,12.96
2023-01-20T01:58:41.134Z,12.98
2023-01-20T02:01:08.056Z,12.93
2023-01-20T02:03:56.843Z,12.93
2023-01-20T02:06:26.141Z,12.92
2023-01-20T02:08:53.381Z,12.93
2023-01-20T02:11:20.240Z,13.01
2023-01-20T02:13:47.177Z,13.06
2023-01-20T02:16:40.584Z,12.94
2023-01-20T02:19:25.134Z,12.97
2023-01-20T02:22:00.972Z,12.98
2023-01-20T02:24:48.913Z,13.09
2023-01-20T02:27:54.530Z,13.07
2023-01-20T02:30:57.551Z,13.13
2023-01-20T02:33:53.268Z,13.13
2023-01-20T02:36:25.884Z,13.02
2023-01-20T02:39:27.052Z,13.00
2023-01-20T02:42:00.451Z,12.99
2023-01-20T02:44:54.968Z,13.03
2023-01-20T02:47:21.588Z,13.02
2023-01-20T02:49:55.449Z,13.06
2023-01-20T02:52:28.436Z,13.11
2023-01-20T02:54:59.543Z,13.10
2023-01-20T02:57:31.303Z,13.07
2023-01-20T03:00:05.669Z,12.76
2023-01-20T03:02:36.070Z,12.56
2023-01-20T03:05:08.833Z,12.51
2023-01-20T03:07:38.880Z,12.38
2023-01-20T03:10:10.405Z,12.30
2023-01-20T03:12:42.667Z,12.12
2023-01-20T03:15:10.967Z,12.13
2023-01-20T03:17:37.967Z,11.95
2023-01-20T03:20:05.527Z,11.83
2023-01-20T03:22:32.649Z,11.64
2023-01-20T03:25:00.039Z,11.43
2023-01-20T03:27:27.311Z,11.34
2023-01-20T03:29:54.332Z,11.23
2023-01-20T03:32:27.054Z,11.07
2023-01-20T03:34:56.020Z,10.96
2023-01-20T03:37:23.408Z,10.90
2023-01-20T03:39:51.138Z,10.77
2023-01-20T03:42:31.881Z,10.70
2023-01-20T03:45:23.648Z,10.54
2023-01-20T03:48:06.850Z,10.38
2023-01-20T03:50:55.240Z,9.92
2023-01-20T03:53:45.623Z,9.84
2023-01-20T03:56:19.346Z,9.82
2023-01-20T03:58:50.541Z,9.74
2023-01-20T04:01:21.339Z,9.69
2023-01-20T04:03:52.252Z,9.67
2023-01-20T04:06:21.780Z,9.47
2023-01-20T04:08:56.737Z,9.44
2023-01-20T04:11:24.398Z,9.35
2023-01-20T04:13:51.525Z,9.39
2023-01-20T04:16:19.882Z,9.36
2023-01-20T04:18:49.665Z,9.22
2023-01-20T04:21:22.876Z,9.08
2023-01-20T04:24:08.269Z,9.17
2023-01-20T04:26:35.152Z,9.00
2023-01-20T04:29:10.458Z,8.91
2023-01-20T04:31:38.828Z,8.77
2023-01-20T04:34:06.609Z,8.60
2023-01-20T04:36:33.335Z,8.50
2023-01-20T04:39:00.190Z,8.49
2023-01-20T04:41:27.117Z,8.52
2023-01-20T04:43:53.865Z,8.34
2023-01-20T04:46:20.607Z,8.36
2023-01-20T04:48:47.491Z,8.28
2023-01-20T04:51:15.415Z,8.28
2023-01-20T04:53:42.274Z,8.08
2023-01-20T04:56:13.424Z,7.97
2023-01-20T04:58:40.735Z,7.95
2023-01-20T05:01:08.308Z,7.95
2023-01-20T05:03:35.635Z,7.81
2023-01-20T05:06:03.317Z,7.68
2023-01-20T05:08:30.176Z,7.67
2023-01-20T05:10:56.946Z,7.75
2023-01-20T05:13:23.915Z,7.73
2023-01-20T05:15:51.146Z,7.74
2023-01-20T05:18:18.313Z,7.68
2023-01-20T05:20:46.645Z,7.68
2023-01-20T05:23:13.845Z,7.73
2023-01-20T05:25:40.825Z,7.74
2023-01-20T05:28:09.295Z,7.82
2023-01-20T05:30:36.383Z,7.92
2023-01-20T05:33:03.293Z,8.04
2023-01-20T05:35:31.891Z,8.27
2023-01-20T05:37:58.684Z,8.79
2023-01-20T05:40:25.420Z,9.22
2023-01-20T05:42:52.205Z,9.56
2023-01-20T05:45:19.123Z,9.77
2023-01-20T05:47:46.005Z,9.94
2023-01-20T05:50:12.961Z,10.12
2023-01-20T05:52:39.863Z,10.22
2023-01-20T05:55:06.857Z,10.47
2023-01-20T05:57:36.716Z,10.62
2023-01-20T06:00:05.117Z,10.80
2023-01-20T06:02:31.944Z,11.04
2023-01-20T06:05:01.786Z,11.21
2023-01-20T06:07:29.803Z,11.29
2023-01-20T06:09:57.116Z,11.52
2023-01-20T06:12:24.792Z,11.69
2023-01-20T06:14:51.553Z,11.72
2023-01-20T06:17:18.481Z,11.99
2023-01-20T06:19:45.292Z,12.10
2023-01-20T06:22:15.644Z,12.12
2023-01-20T06:24:42.498Z,12.26
2023-01-20T06:27:09.709Z,12.35
2023-01-20T06:29:36.518Z,12.44
2023-01-20T06:32:03.784Z,12.48
2023-01-20T06:34:30.911Z,12.31
2023-01-20T06:36:58.480Z,12.48
2023-01-20T06:39:25.392Z,12.46
2023-01-20T06:41:52.241Z,12.55
2023-01-20T06:44:18.976Z,12.61
2023-01-20T06:46:48.197Z,12.62
2023-01-20T06:49:15.324Z,12.61
2023-01-20T06:51:42.021Z,12.67
2023-01-20T06:54:08.937Z,12.65
2023-01-20T06:56:36.025Z,12.69
2023-01-20T06:59:02.985Z,12.74
2023-01-20T07:01:31.429Z,12.82
2023-01-20T07:03:58.952Z,12.84
2023-01-20T07:06:40.633Z,12.87
2023-01-20T07:09:10.245Z,13.02
2023-01-20T07:11:37.361Z,12.98
2023-01-20T07:14:05.375Z,13.10
2023-01-20T07:16:32.233Z,13.04
2023-01-20T07:18:59.070Z,12.95
2023-01-20T07:21:26.677Z,12.91
2023-01-20T07:23:53.799Z,12.85
2023-01-20T07:26:23.072Z,12.90
2023-01-20T07:28:50.402Z,12.98
2023-01-20T07:31:18.688Z,12.98
2023-01-20T07:33:46.076Z,13.00
2023-01-20T07:36:15.463Z,13.00
2023-01-20T07:38:44.887Z,13.02
2023-01-20T07:41:16.413Z,13.04
2023-01-20T07:43:44.569Z,13.06
2023-01-20T07:46:12.194Z,13.12
2023-01-20T07:48:40.546Z,12.99
2023-01-20T07:51:09.779Z,13.04
2023-01-20T07:53:42.096Z,12.92
2023-01-20T07:56:11.971Z,12.98
2023-01-20T07:58:39.228Z,13.01
2023-01-20T08:01:09.343Z,12.97
2023-01-20T08:03:36.394Z,13.07
2023-01-20T08:06:08.263Z,12.97
2023-01-20T08:08:36.354Z,13.03
2023-01-20T08:11:06.311Z,12.96
2023-01-20T08:13:33.485Z,13.00
2023-01-20T08:16:01.665Z,12.97
2023-01-20T08:18:28.959Z,12.92
2023-01-20T08:20:56.239Z,13.03
2023-01-20T08:23:23.210Z,12.92
2023-01-20T08:25:51.734Z,12.94
2023-01-20T08:28:18.455Z,12.81
2023-01-20T08:30:45.437Z,12.86
2023-01-20T08:33:12.234Z,12.86
2023-01-20T08:35:39.061Z,12.86
2023-01-20T08:38:06.864Z,12.79
2023-01-20T08:40:35.056Z,12.85
2023-01-20T08:43:02.238Z,12.75
2023-01-20T08:45:29.232Z,12.75
2023-01-20T08:47:59.184Z,12.77
2023-01-20T08:50:26.153Z,12.81
2023-01-20T08:52:53.027Z,12.92
2023-01-20T08:55:19.811Z,12.90
2023-01-20T08:57:49.756Z,12.93
2023-01-20T09:00:17.846Z,12.88
2023-01-20T09:02:44.622Z,12.91
2023-01-20T09:05:11.779Z,12.84
2023-01-20T09:07:38.917Z,12.83
2023-01-20T09:10:06.465Z,12.76
2023-01-20T09:12:33.450Z,12.66
2023-01-20T09:15:00.150Z,12.60
2023-01-20T09:17:27.036Z,12.53
2023-01-20T09:19:54.711Z,12.23
2023-01-20T09:22:21.649Z,12.03
2023-01-20T09:24:48.604Z,11.90
2023-01-20T09:27:17.005Z,11.58
2023-01-20T09:29:44.141Z,11.24
2023-01-20T09:32:13.122Z,11.16
2023-01-20T09:34:39.893Z,11.08
2023-01-20T09:37:25.289Z,11.05
2023-01-20T09:40:10.805Z,10.84
2023-01-20T09:43:14.561Z,10.82
2023-01-20T09:46:01.329Z,10.81
2023-01-20T09:49:11.122Z,10.81
2023-01-20T09:51:56.742Z,10.74
2023-01-20T09:54:34.274Z,10.42
2023-01-20T09:57:03.111Z,10.28
2023-01-20T09:59:44.064Z,10.20
2023-01-20T10:02:18.193Z,10.13
2023-01-20T10:04:54.991Z,9.95
2023-01-20T10:07:32.512Z,9.71
2023-01-20T10:10:10.943Z,9.52
2023-01-20T10:12:42.878Z,9.29
2023-01-20T10:15:29.919Z,9.22
2023-01-20T10:18:20.117Z,9.08
2023-01-20T10:21:12.334Z,9.09
2023-01-20T10:23:54.072Z,9.06
2023-01-20T10:26:22.751Z,9.04
2023-01-20T10:29:04.309Z,9.17
2023-01-20T10:31:43.044Z,9.15
2023-01-20T10:34:21.325Z,9.08
2023-01-20T10:37:03.508Z,9.05
2023-01-20T10:39:50.337Z,9.10
2023-01-20T10:42:20.501Z,9.20
2023-01-20T10:44:50.177Z,9.26
2023-01-20T10:48:04.836Z,9.23
2023-01-20T10:50:54.624Z,9.31
2023-01-20T10:53:33.835Z,9.38
2023-01-20T10:56:26.018Z,9.56
2023-01-20T10:58:52.715Z,9.45
2023-01-20T11:01:28.571Z,9.53
2023-01-20T11:03:55.276Z,9.63
2023-01-20T11:06:27.010Z,9.70
2023-01-20T11:08:55.311Z,9.75
2023-01-20T11:11:25.033Z,9.78
2023-01-20T11:13:53.071Z,9.81
2023-01-20T11:16:23.455Z,9.88
2023-01-20T11:19:06.232Z,10.01
2023-01-20T11:21:36.880Z,10.23
2023-01-20T11:24:43.217Z,10.38
2023-01-20T11:27:22.411Z,10.46
2023-01-20T11:29:52.832Z,10.50
2023-01-20T11:32:35.418Z,10.66
2023-01-20T11:35:24.680Z,10.70
2023-01-20T11:37:52.553Z,10.68
2023-01-20T11:40:24.610Z,10.75
2023-01-20T11:42:53.642Z,10.80
2023-01-20T11:45:29.729Z,10.75
2023-01-20T11:48:06.138Z,10.74
2023-01-20T11:50:40.599Z,10.84
2023-01-20T11:53:19.551Z,10.86
2023-01-20T11:56:16.686Z,10.70
2023-01-20T11:58:54.680Z,10.71
2023-01-20T12:01:29.988Z,10.83
2023-01-20T12:04:17.736Z,10.85
2023-01-20T12:07:03.947Z,10.86
2023-01-20T12:09:37.705Z,10.88
2023-01-20T12:12:33.694Z,10.94
2023-01-20T12:15:06.236Z,10.91
2023-01-20T12:17:36.364Z,10.89
2023-01-20T12:20:03.529Z,10.84
2023-01-20T12:22:59.666Z,10.76
2023-01-20T12:25:30.945Z,10.71
2023-01-20T12:28:04.557Z,10.69
2023-01-20T12:30:37.601Z,10.70
2023-01-20T12:33:05.356Z,10.75
2023-01-20T12:35:41.863Z,10.65
2023-01-20T12:38:09.386Z,10.68
2023-01-20T12:40:46.264Z,10.59
2023-01-20T12:43:27.154Z,10.59
2023-01-20T12:46:04.332Z,10.57
2023-01-20T12:48:37.210Z,10.57
2023-01-20T12:51:07.429Z,10.56
2023-01-20T12:54:47.380Z,10.54
2023-01-20T12:57:32.350Z,10.58
2023-01-20T13:00:33.287Z,10.59
2023-01-20T13:03:23.916Z,10.56
2023-01-20T13:06:40.784Z,10.56
2023-01-20T13:09:35.759Z,10.57
2023-01-20T13:12:12.579Z,10.55
2023-01-20T13:14:43.895Z,10.61
2023-01-20T13:17:30.818Z,10.58
2023-01-20T13:20:02.052Z,10.61
2023-01-20T13:22:30.399Z,10.53
2023-01-20T13:25:05.007Z,10.56
2023-01-20T13:27:37.784Z,10.52
2023-01-20T13:30:06.922Z,10.47
2023-01-20T13:32:48.507Z,10.49
2023-01-20T13:35:18.027Z,10.42
2023-01-20T13:37:51.963Z,10.33
2023-01-20T13:40:36.963Z,10.25
2023-01-20T13:43:05.420Z,10.06
2023-01-20T13:45:32.187Z,10.01
2023-01-20T13:48:08.525Z,9.94
2023-01-20T13:50:37.270Z,9.79
2023-01-20T13:53:23.115Z,9.72
2023-01-20T13:55:52.365Z,9.54
2023-01-20T13:58:48.887Z,9.63
2023-01-20T14:01:15.817Z,9.64
2023-01-20T14:03:43.019Z,9.71
2023-01-20T14:06:11.309Z,9.76
2023-01-20T14:08:43.954Z,9.69
2023-01-20T14:11:16.572Z,9.73
2023-01-20T14:13:52.605Z,9.77
2023-01-20T14:16:30.034Z,9.69
2023-01-20T14:19:20.036Z,9.67
2023-01-20T14:21:53.499Z,9.66
2023-01-20T14:24:32.792Z,9.74
2023-01-20T14:27:17.840Z,9.71
2023-01-20T14:29:49.031Z,9.75
2023-01-20T14:32:25.323Z,9.80
2023-01-20T14:34:53.310Z,9.73
2023-01-20T14:37:36.694Z,9.76
2023-01-20T14:40:27.222Z,9.59
2023-01-20T14:43:00.479Z,9.63
2023-01-20T14:45:32.910Z,9.57
2023-01-20T14:48:02.990Z,9.59
2023-01-20T14:50:33.887Z,9.57
2023-01-20T14:53:01.134Z,9.59
2023-01-20T14:55:44.391Z,9.53
2023-01-20T14:58:18.043Z,9.54
2023-01-20T15:00:47.234Z,9.51
2023-01-20T15:03:25.728Z,9.49
2023-01-20T15:06:20.587Z,9.52
2023-01-20T15:09:05.063Z,9.42
2023-01-20T15:11:33.013Z,9.44
2023-01-20T15:14:02.186Z,9.41
2023-01-20T15:16:46.782Z,9.33
2023-01-20T15:19:13.774Z,9.20
2023-01-20T15:21:56.427Z,9.22
2023-01-20T15:24:37.433Z,9.16
2023-01-20T15:27:22.016Z,9.15
2023-01-20T15:30:22.992Z,9.19
2023-01-20T15:32:51.460Z,9.18
2023-01-20T15:35:22.897Z,9.08
2023-01-20T15:37:50.388Z,9.24
2023-01-20T15:40:20.566Z,9.22
2023-01-20T15:42:48.898Z,9.25
2023-01-20T15:45:16.651Z,9.26
2023-01-20T15:47:45.863Z,9.25
2023-01-20T15:50:19.935Z,9.17
2023-01-20T15:52:47.181Z,9.22
2023-01-20T15:55:19.668Z,9.29
2023-01-20T15:57:50.388Z,9.28
2023-01-20T16:00:20.007Z,9.28
2023-01-20T16:02:47.385Z,9.33
2023-01-20T16:05:18.263Z,9.39
2023-01-20T16:07:47.963Z,9.40
2023-01-20T16:10:21.844Z,9.33
2023-01-20T16:12:49.096Z,9.30
2023-01-20T16:15:20.974Z,9.27
2023-01-20T16:17:48.055Z,9.26
2023-01-20T16:20:23.782Z,9.31
2023-01-20T16:22:52.029Z,9.29
2023-01-20T16:25:20.840Z,9.39
2023-01-20T16:27:48.171Z,9.42
2023-01-20T16:30:21.258Z,9.46
2023-01-20T16:32:48.852Z,9.42
2023-01-20T16:35:18.725Z,9.45
2023-01-20T16:37:47.652Z,9.50
2023-01-20T16:40:17.603Z,9.49
2023-01-20T16:42:45.708Z,9.46
2023-01-20T16:45:26.597Z,9.16
2023-01-20T16:47:53.998Z,8.83
2023-01-20T16:50:21.764Z,8.60
2023-01-20T16:52:51.768Z,8.28
2023-01-20T16:55:19.363Z,8.16
2023-01-20T16:57:46.777Z,7.86
2023-01-20T17:00:18.239Z,7.73
2023-01-20T17:02:50.392Z,7.66
2023-01-20T17:05:22.460Z,7.69
2023-01-20T17:07:50.433Z,7.64
2023-01-20T17:10:21.058Z,7.51
2023-01-20T17:12:49.084Z,7.32
2023-01-20T17:15:18.675Z,7.24
2023-01-20T17:17:54.879Z,7.21
2023-01-20T17:20:22.402Z,7.19
2023-01-20T17:22:49.381Z,7.21
2023-01-20T17:25:19.337Z,7.24
2023-01-20T17:27:46.577Z,7.26
2023-01-20T17:30:15.847Z,7.28
2023-01-20T17:32:48.048Z,7.30
2023-01-20T17:35:16.666Z,7.33
2023-01-20T17:37:43.807Z,7.31
2023-01-20T17:40:13.064Z,7.28
2023-01-20T17:42:40.441Z,7.24
2023-01-20T17:45:08.285Z,7.30
2023-01-20T17:47:35.300Z,7.34
2023-01-20T17:50:02.761Z,7.30
2023-01-20T17:52:30.169Z,7.32
2023-01-20T17:54:57.357Z,7.31
2023-01-20T17:57:26.794Z,7.36
2023-01-20T17:59:54.453Z,7.34
2023-01-20T18:02:22.565Z,7.31
2023-01-20T18:04:49.839Z,7.32
2023-01-20T18:07:17.278Z,7.37
2023-01-20T18:09:44.482Z,7.39
2023-01-20T18:12:11.311Z,7.40
2023-01-20T18:14:38.855Z,7.42
2023-01-20T18:17:05.878Z,7.35
2023-01-20T18:19:32.691Z,7.42
2023-01-20T18:22:02.019Z,7.39
2023-01-20T18:24:28.741Z,7.31
2023-01-20T18:26:57.790Z,7.19
2023-01-20T18:29:24.729Z,6.92
2023-01-20T18:31:51.579Z,6.68
2023-01-20T18:34:18.475Z,6.43
2023-01-20T18:36:46.405Z,6.46
2023-01-20T18:39:12.988Z,6.49
2023-01-20T18:41:40.279Z,6.25
2023-01-20T18:44:08.546Z,6.19
2023-01-20T18:46:36.506Z,6.19
2023-01-20T18:49:03.906Z,6.14
2023-01-20T18:51:32.162Z,6.13
2023-01-20T18:54:07.928Z,6.15
2023-01-20T18:56:35.658Z,6.23
2023-01-20T18:59:04.989Z,6.23
2023-01-20T19:01:34.960Z,6.12
2023-01-20T19:04:03.573Z,6.03
2023-01-20T19:06:34.612Z,5.94
2023-01-20T19:09:02.701Z,5.90
2023-01-20T19:11:32.568Z,5.77
2023-01-20T19:14:00.127Z,5.86
2023-01-20T19:16:33.083Z,5.72
2023-01-20T19:19:07.745Z,5.72
2023-01-20T19:21:36.983Z,5.66
2023-01-20T19:24:06.240Z,5.77
2023-01-20T19:26:35.784Z,5.76
2023-01-20T19:29:06.503Z,5.80
2023-01-20T19:31:37.059Z,5.92
2023-01-20T19:34:06.627Z,6.02
2023-01-20T19:36:34.349Z,6.08
2023-01-20T19:39:01.318Z,6.14
2023-01-20T19:41:33.506Z,6.25
2023-01-20T19:44:03.170Z,6.20
2023-01-20T19:46:33.083Z,6.08
2023-01-20T19:49:02.383Z,6.04
2023-01-20T19:51:31.680Z,5.98
2023-01-20T19:54:03.333Z,5.93
2023-01-20T19:56:32.631Z,5.82
2023-01-20T19:59:03.284Z,5.85
2023-01-20T20:01:34.951Z,5.91
2023-01-20T20:04:07.477Z,5.90
2023-01-20T20:06:36.778Z,5.90
2023-01-20T20:09:10.417Z,5.86
2023-01-20T20:11:37.944Z,5.88
2023-01-20T20:14:06.880Z,5.98
2023-01-20T20:16:36.127Z,6.00
2023-01-20T20:19:03.382Z,6.00
2023-01-20T20:21:30.590Z,5.97
2023-01-20T20:24:01.066Z,5.96
2023-01-20T20:26:31.088Z,5.95
2023-01-20T20:29:02.420Z,5.96
2023-01-20T20:31:30.245Z,5.98
2023-01-20T20:34:01.651Z,5.93
2023-01-20T20:36:31.086Z,5.89
2023-01-20T20:38:59.499Z,5.90
2023-01-20T20:41:29.331Z,5.93
2023-01-20T20:43:56.875Z,5.87
2023-01-20T20:46:24.527Z,5.95
2023-01-20T20:48:56.664Z,5.99
2023-01-20T20:51:24.265Z,6.10
2023-01-20T20:53:56.203Z,6.07
2023-01-20T20:56:24.630Z,6.08
2023-01-20T20:59:01.288Z,6.03
2023-01-20T21:01:30.734Z,6.07
2023-01-20T21:03:57.884Z,6.04
2023-01-20T21:06:25.604Z,5.97
2023-01-20T21:08:53.423Z,5.90
2023-01-20T21:11:20.454Z,5.84
2023-01-20T21:13:49.587Z,5.86
2023-01-20T21:16:22.243Z,5.86
2023-01-20T21:18:50.407Z,5.89
2023-01-20T21:21:20.067Z,5.95
2023-01-20T21:23:55.588Z,6.01
2023-01-20T21:26:24.061Z,5.91
2023-01-20T21:28:50.909Z,5.93
2023-01-20T21:31:23.531Z,6.01
2023-01-20T21:33:55.403Z,6.02
2023-01-20T21:36:23.086Z,6.02
2023-01-20T21:38:50.504Z,6.03
2023-01-20T21:41:18.299Z,6.03
2023-01-20T21:44:05.654Z,5.96
2023-01-20T21:46:39.178Z,5.99
2023-01-20T21:49:25.890Z,5.95
2023-01-20T21:52:11.379Z,5.92
2023-01-20T21:54:39.890Z,5.77
2023-01-20T21:57:07.073Z,5.83
2023-01-20T21:59:34.064Z,5.82
2023-01-20T22:02:01.286Z,5.78
2023-01-20T22:04:28.107Z,5.81
2023-01-20T22:06:54.811Z,5.82
2023-01-20T22:09:21.767Z,5.89
2023-01-20T22:11:49.696Z,6.01
2023-01-20T22:14:16.447Z,6.04
2023-01-20T22:16:43.205Z,6.00
2023-01-20T22:19:15.594Z,5.87
2023-01-20T22:21:42.771Z,6.01
2023-01-20T22:24:10.721Z,5.99
2023-01-20T22:26:37.543Z,5.95
2023-01-20T22:29:04.580Z,5.93
2023-01-20T22:31:34.051Z,5.96
2023-01-20T22:34:05.466Z,5.95
2023-01-20T22:36:34.590Z,5.79
2023-01-20T22:39:02.285Z,5.71
2023-01-20T22:41:32.231Z,5.66
2023-01-20T22:43:59.166Z,5.56
2023-01-20T22:46:27.634Z,5.69
2023-01-20T22:48:58.992Z,5.66
2023-01-20T22:51:28.252Z,5.60
2023-01-20T22:53:59.095Z,5.55
2023-01-20T22:56:28.009Z,5.47
2023-01-20T22:58:55.860Z,5.60
2023-01-20T23:01:31.954Z,5.56
2023-01-20T23:04:01.064Z,5.54
2023-01-20T23:06:47.977Z,5.47
2023-01-20T23:09:14.921Z,5.51
2023-01-20T23:11:42.147Z,5.43
2023-01-20T23:14:12.806Z,5.27
2023-01-20T23:16:40.771Z,5.24
2023-01-20T23:19:08.543Z,5.28
2023-01-20T23:21:35.840Z,5.24
2023-01-20T23:24:02.754Z,5.16
2023-01-20T23:26:31.119Z,5.25
2023-01-20T23:28:58.259Z,5.07
2023-01-20T23:31:26.103Z,4.99
2023-01-20T23:33:55.824Z,4.92
2023-01-20T23:36:24.873Z,4.81
2023-01-20T23:38:54.370Z,4.70
2023-01-20T23:41:21.756Z,4.85
2023-01-20T23:43:49.068Z,4.64
2023-01-20T23:46:16.171Z,4.51
2023-01-20T23:48:45.826Z,4.50
2023-01-20T23:51:13.117Z,4.54
2023-01-20T23:53:41.007Z,4.38
2023-01-20T23:56:15.634Z,4.28
2023-01-20T23:58:43.076Z,4.09
